Time;durP1;ratioP1;P1;durP2;ratioP2;P2;SDS_P1;SDS_P2;PMS_P1;PMS_P2;Temp;Humidity;BMP_temperature;BMP_pressure;BME280_temperature;BME280_humidity;BME280_pressure;Samples;Min_cycle;Max_cycle;Signal;HPM_P1;HPM_P2
2021/01/28 00:03:53;;;;;;;101.20;42.13;;;;;;;-1.74;91.02;99966.52;3607478;80;98806;-80
2021/01/28 00:08:54;;;;;;;87.40;38.97;;;;;;;-1.73;91.04;99972.70;3618305;80;35028;-80
2021/01/28 00:13:56;;;;;;;85.73;38.20;;;;;;;-1.77;91.03;99969.02;3625644;80;98821;-80
2021/01/28 00:18:57;;;;;;;81.00;36.70;;;;;;;-1.81;91.19;99962.09;3618912;80;35571;-80
2021/01/28 00:23:58;;;;;;;75.93;33.87;;;;;;;-1.82;91.22;99959.70;3607144;80;98417;-81
2021/01/28 00:28:59;;;;;;;82.53;34.50;;;;;;;-1.83;91.44;99953.52;3543671;82;35986;-80
2021/01/28 00:34:00;;;;;;;82.22;36.17;;;;;;;-1.84;91.42;99943.84;3560911;80;98351;-80
2021/01/28 00:39:02;;;;;;;82.67;37.30;;;;;;;-1.86;91.87;99948.73;3647113;80;35414;-80
2021/01/28 00:44:04;;;;;;;79.00;35.80;;;;;;;-1.85;91.85;99944.14;3631709;80;98501;-80
2021/01/28 00:49:05;;;;;;;72.13;32.30;;;;;;;-1.85;91.65;99933.36;3626869;80;35040;-80
2021/01/28 00:54:06;;;;;;;70.67;31.93;;;;;;;-1.87;91.83;99923.44;3641020;80;98570;-80
2021/01/28 00:59:07;;;;;;;71.43;31.90;;;;;;;-1.89;92.02;99914.84;3650330;80;36084;-80
2021/01/28 01:04:09;;;;;;;71.57;31.07;;;;;;;-1.89;92.14;99902.70;3644889;80;98768;-80
2021/01/28 01:09:10;;;;;;;67.80;31.33;;;;;;;-1.89;92.41;99891.92;3643547;80;35478;-80
2021/01/28 01:14:11;;;;;;;67.23;30.67;;;;;;;-1.86;92.52;99881.88;3638548;80;98614;-81
2021/01/28 01:19:14;;;;;;;67.17;29.73;;;;;;;-1.82;92.62;99870.70;3639286;80;35707;-80
2021/01/28 01:24:16;;;;;;;62.77;27.80;;;;;;;-1.80;92.52;99874.68;3620340;80;98638;-81
2021/01/28 01:29:17;;;;;;;61.43;26.53;;;;;;;-1.78;92.62;99869.80;3644442;80;35731;-81
2021/01/28 01:34:18;;;;;;;58.93;25.77;;;;;;;-1.76;92.62;99864.09;3625023;80;98704;-81
2021/01/28 01:39:19;;;;;;;61.77;27.63;;;;;;;-1.75;92.61;99848.16;3637411;80;34990;-81
2021/01/28 01:44:24;;;;;;;56.20;24.97;;;;;;;-1.74;92.51;99843.00;3613353;80;99040;-80
2021/01/28 01:49:25;;;;;;;56.10;23.97;;;;;;;-1.73;92.62;99845.93;3626113;79;35020;-80
2021/01/28 01:54:35;;;;;;;61.17;24.77;;;;;;;-1.73;92.59;99843.23;3636116;80;98843;-80
2021/01/28 01:59:56;;;;;;;48.93;23.40;;;;;;;-1.74;92.67;99826.81;3636564;81;35655;-79
2021/01/28 02:05:05;;;;;;;52.97;24.63;;;;;;;-1.73;92.63;99817.61;3625860;80;98341;-79
2021/01/28 02:10:13;;;;;;;45.60;20.73;;;;;;;-1.73;92.58;99802.23;3658360;80;35400;-80
2021/01/28 02:15:14;;;;;;;48.70;21.57;;;;;;;-1.73;92.58;99798.19;3641014;80;98579;-80
2021/01/28 02:20:36;;;;;;;45.63;20.80;;;;;;;-1.72;92.57;99785.48;3655250;80;34986;-80
2021/01/28 02:25:39;;;;;;;44.90;21.67;;;;;;;-1.72;92.54;99782.78;3570165;81;98675;-80
2021/01/28 02:30:41;;;;;;;42.63;20.50;;;;;;;-1.73;92.64;99768.52;3629859;81;35011;-80
2021/01/28 02:35:47;;;;;;;45.93;22.17;;;;;;;-1.72;92.65;99759.86;3610281;80;98770;-79
2021/01/28 02:40:48;;;;;;;45.83;20.97;;;;;;;-1.72;92.60;99746.38;3621289;81;26293;-79
2021/01/28 02:46:04;;;;;;;48.90;21.30;;;;;;;-1.70;92.65;99727.42;3592481;81;99231;-80
2021/01/28 02:51:08;;;;;;;46.83;20.00;;;;;;;-1.67;92.79;99727.35;3584472;81;25870;-80
2021/01/28 02:56:10;;;;;;;46.65;20.60;;;;;;;-1.63;93.07;99707.55;3549855;81;98931;-79
2021/01/28 03:01:11;;;;;;;50.10;23.10;;;;;;;-1.56;92.84;99698.97;3518960;82;35246;-80
2021/01/28 03:06:14;;;;;;;44.07;19.80;;;;;;;-1.51;93.01;99688.84;3559458;81;98592;-79
2021/01/28 03:11:15;;;;;;;39.50;20.70;;;;;;;-1.42;92.84;99699.07;3611657;80;35266;-80
2021/01/28 03:16:16;;;;;;;40.73;19.73;;;;;;;-1.32;92.89;99692.02;3598566;80;98847;-80
2021/01/28 03:21:17;;;;;;;42.00;18.20;;;;;;;-1.23;92.61;99686.08;3595606;80;35134;-80
2021/01/28 03:26:18;;;;;;;43.27;19.33;;;;;;;-1.11;92.58;99659.23;3595761;80;98818;-80
2021/01/28 03:31:19;;;;;;;42.10;20.10;;;;;;;-1.01;92.33;99660.27;3603164;80;35013;-80
2021/01/28 03:36:20;;;;;;;38.87;19.53;;;;;;;-0.89;92.03;99649.60;3603164;80;98575;-80
2021/01/28 03:41:21;;;;;;;39.87;18.00;;;;;;;-0.78;91.77;99646.03;3618767;80;35136;-80
2021/01/28 03:46:22;;;;;;;42.67;19.53;;;;;;;-0.68;91.52;99640.26;3597677;80;98329;-81
2021/01/28 03:51:23;;;;;;;38.73;17.03;;;;;;;-0.61;91.17;99631.90;3609214;80;36242;-81
2021/01/28 03:56:24;;;;;;;38.97;17.63;;;;;;;-0.53;91.16;99624.88;3610046;80;99013;-81
2021/01/28 04:01:25;;;;;;;38.37;17.53;;;;;;;-0.45;90.86;99634.88;3619090;80;34981;-80
2021/01/28 04:06:27;;;;;;;37.83;17.23;;;;;;;-0.39;90.72;99625.48;3648895;79;98293;-80
2021/01/28 04:11:28;;;;;;;43.58;17.45;;;;;;;-0.32;90.58;99604.94;3669890;79;35415;-78
2021/01/28 04:16:29;;;;;;;40.20;17.83;;;;;;;-0.26;90.42;99594.95;3629761;80;98865;-81
2021/01/28 04:21:30;;;;;;;36.30;16.87;;;;;;;-0.20;90.34;99584.76;3608609;80;33609;-80
2021/01/28 04:26:31;;;;;;;37.83;19.23;;;;;;;-0.15;90.22;99588.05;3612674;80;98681;-79
2021/01/28 04:31:33;;;;;;;37.77;17.50;;;;;;;-0.06;90.11;99559.05;3629156;80;33905;-80
2021/01/28 04:36:34;;;;;;;34.47;17.80;;;;;;;-0.06;90.11;99559.05;3622443;80;98681;-79
2021/01/28 04:41:36;;;;;;;36.63;17.73;;;;;;;-0.01;89.92;99550.75;3629778;80;33354;-79
2021/01/28 04:46:44;;;;;;;33.80;16.93;;;;;;;0.02;89.94;99541.19;3619623;80;98866;-79
2021/01/28 04:51:47;;;;;;;38.97;19.37;;;;;;;0.05;89.96;99525.09;3630750;80;26553;-79
2021/01/28 04:56:50;;;;;;;36.30;18.27;;;;;;;0.09;90.28;99513.86;3608734;79;98767;-79
2021/01/28 05:01:51;;;;;;;33.50;17.37;;;;;;;0.12;90.65;99505.06;3626195;81;26786;-79
2021/01/28 05:06:53;;;;;;;38.33;17.70;;;;;;;0.13;90.97;99503.94;3613144;80;98643;-79
2021/01/28 05:11:57;;;;;;;37.03;18.00;;;;;;;0.15;91.15;99490.09;3622930;80;36805;-80
2021/01/28 05:17:04;;;;;;;36.77;17.77;;;;;;;0.15;91.51;99494.95;3626059;79;98795;-80
2021/01/28 05:22:37;;;;;;;44.00;20.43;;;;;;;0.16;91.97;99499.78;3619533;80;26500;-79
2021/01/28 05:27:40;;;;;;;41.13;18.73;;;;;;;0.12;92.42;99481.30;3613498;79;98378;-79
2021/01/28 05:32:48;;;;;;;36.90;19.03;;;;;;;0.11;92.75;99471.61;3621018;80;33240;-79
2021/01/28 05:37:54;;;;;;;40.00;19.33;;;;;;;0.12;92.83;99462.36;3615830;80;97975;-79
2021/01/28 05:42:55;;;;;;;37.73;19.37;;;;;;;0.11;93.50;99442.63;3613148;80;26258;-81
2021/01/28 05:48:20;;;;;;;38.27;19.60;;;;;;;0.12;93.55;99439.38;3617157;80;98261;-79
2021/01/28 05:53:21;;;;;;;39.83;20.33;;;;;;;0.15;93.55;99440.84;3629143;80;25968;-79
2021/01/28 05:58:52;;;;;;;40.00;20.40;;;;;;;0.18;93.97;99418.52;3627644;79;98209;-79
2021/01/28 06:04:19;;;;;;;38.80;20.87;;;;;;;0.19;93.94;99405.80;3619574;80;98145;-81
2021/01/28 06:09:45;;;;;;;38.87;20.10;;;;;;;0.22;94.65;99403.80;3588265;80;33903;-79
2021/01/28 06:21:00;;;;;;;39.77;20.53;;;;;;;0.25;95.52;99399.86;3458387;84;32839;-79
2021/01/28 06:26:23;;;;;;;39.70;21.63;;;;;;;0.28;95.31;99393.76;3453571;84;98500;-79
2021/01/28 06:31:36;;;;;;;35.47;20.53;;;;;;;0.29;95.07;99384.52;3455079;84;32752;-78
2021/01/28 06:36:48;;;;;;;38.70;19.57;;;;;;;0.34;95.28;99382.95;3447389;84;98185;-78
2021/01/28 06:42:23;;;;;;;42.07;20.77;;;;;;;0.36;95.81;99375.86;3457804;84;32759;-78
2021/01/28 06:47:50;;;;;;;37.13;19.80;;;;;;;0.38;95.97;99366.83;3368367;85;98311;-78
2021/01/28 06:53:14;;;;;;;39.93;21.83;;;;;;;0.39;95.87;99346.79;3361200;86;32694;-78
2021/01/28 06:58:26;;;;;;;38.43;19.57;;;;;;;0.42;95.97;99352.31;3357232;86;98372;-78
2021/01/28 07:03:55;;;;;;;37.97;19.30;;;;;;;0.48;96.26;99347.45;3365555;84;32658;-79
2021/01/28 07:09:17;;;;;;;36.67;19.63;;;;;;;0.50;96.37;99343.87;3362131;84;32763;-79
2021/01/28 07:14:19;;;;;;;37.90;20.55;;;;;;;0.54;96.24;99337.98;3358839;85;98679;-79
2021/01/28 07:19:37;;;;;;;34.87;19.77;;;;;;;0.57;96.50;99334.62;3336954;87;33984;-79
2021/01/28 07:24:38;;;;;;;36.00;19.90;;;;;;;0.60;96.71;99333.96;3306068;86;98613;-80
2021/01/28 07:29:50;;;;;;;35.40;19.30;;;;;;;0.64;96.91;99319.95;3356701;86;32760;-79
2021/01/28 07:35:26;;;;;;;35.47;19.23;;;;;;;0.67;97.10;99321.41;3365444;85;98513;-80
2021/01/28 07:41:04;;;;;;;35.00;18.40;;;;;;;0.71;96.68;99318.27;3415169;84;33310;-80
2021/01/28 07:46:16;;;;;;;41.18;21.87;;;;;;;0.78;96.72;99310.94;3411578;85;98762;-79
2021/01/28 07:51:39;;;;;;;39.90;22.13;;;;;;;0.81;96.66;99311.05;3402660;85;33249;-79
2021/01/28 07:56:45;;;;;;;38.50;20.70;;;;;;;0.85;96.94;99308.45;3407784;84;98169;-79
2021/01/28 08:01:50;;;;;;;42.00;22.10;;;;;;;0.85;97.09;99310.59;3413397;85;26221;-79
2021/01/28 08:06:53;;;;;;;37.27;20.37;;;;;;;0.89;96.93;99314.19;3421356;84;98701;-78
2021/01/28 08:11:56;;;;;;;43.53;21.87;;;;;;;0.90;97.07;99295.47;3407954;84;28813;-80
2021/01/28 08:16:58;;;;;;;38.80;20.60;;;;;;;0.93;97.18;99292.66;3425177;84;98614;-81
2021/01/28 08:22:08;;;;;;;40.47;21.00;;;;;;;0.96;97.07;99304.14;3411828;84;32734;-80
2021/01/28 08:27:20;;;;;;;35.92;19.65;;;;;;;1.00;96.96;99293.63;3446447;84;98342;-78
2021/01/28 08:32:28;;;;;;;44.83;24.10;;;;;;;1.05;97.05;99289.92;3459258;84;33214;-78
2021/01/28 08:37:33;;;;;;;39.90;21.13;;;;;;;1.07;97.06;99289.00;3452397;84;98303;-78
2021/01/28 08:42:34;;;;;;;44.20;22.40;;;;;;;1.11;97.27;99281.78;3458718;84;32759;-77
2021/01/28 08:47:36;;;;;;;46.77;23.77;;;;;;;1.12;97.12;99276.58;3455727;84;98461;-77
2021/01/28 08:52:37;;;;;;;42.43;21.87;;;;;;;1.14;97.16;99275.66;3460132;84;32867;-78
2021/01/28 08:57:39;;;;;;;39.43;18.70;;;;;;;1.17;97.42;99264.14;3435945;84;98185;-77
2021/01/28 09:02:44;;;;;;;32.53;17.37;;;;;;;1.21;97.11;99272.59;3453102;84;32841;-78
2021/01/28 09:08:09;;;;;;;30.95;16.12;;;;;;;1.24;96.96;99276.54;3411602;84;98891;-77
2021/01/28 09:13:24;;;;;;;36.57;18.37;;;;;;;1.28;96.90;99269.30;3401449;85;32727;-78
2021/01/28 09:18:31;;;;;;;35.15;17.42;;;;;;;1.30;96.91;99265.67;3432125;84;98258;-77
2021/01/28 09:23:32;;;;;;;;;;;;;;;1.31;96.88;99268.63;3457799;84;26016;-78
2021/01/28 09:28:33;;;;;;;31.53;16.23;;;;;;;1.35;97.14;99262.73;3446132;84;84177;-78
2021/01/28 09:33:40;;;;;;;34.73;16.83;;;;;;;1.36;96.96;99273.23;3453997;84;32645;-78
2021/01/28 09:39:00;;;;;;;33.23;15.40;;;;;;;1.38;96.90;99270.18;3448868;84;32762;-78
2021/01/28 09:44:02;;;;;;;37.03;17.92;;;;;;;1.40;96.94;99273.33;3449037;84;98804;-78
2021/01/28 09:49:03;;;;;;;80.40;28.37;;;;;;;1.44;97.08;99251.19;3453487;84;32720;-79
2021/01/28 09:54:19;;;;;;;79.50;25.17;;;;;;;1.48;96.97;99253.44;3438317;84;98528;-78
2021/01/28 09:59:20;;;;;;;60.20;22.23;;;;;;;1.52;96.96;99251.59;3393091;85;32691;-79
2021/01/28 10:04:21;;;;;;;69.67;22.98;;;;;;;1.56;97.08;99249.77;3390242;84;98333;-79
2021/01/28 10:09:22;;;;;;;37.30;15.50;;;;;;;1.56;97.06;99249.22;3418374;84;34109;-79
2021/01/28 10:14:23;;;;;;;43.73;18.03;;;;;;;1.57;97.12;99244.56;3426152;83;98475;-79
2021/01/28 10:19:24;;;;;;;31.70;15.77;;;;;;;1.55;97.05;99240.87;3429909;84;32693;-79
2021/01/28 10:24:27;;;;;;;29.83;14.90;;;;;;;1.59;96.93;99248.51;3419142;84;98355;-81
2021/01/28 10:29:28;;;;;;;34.53;16.57;;;;;;;1.60;97.01;99237.11;3434816;84;32762;-80
2021/01/28 10:34:29;;;;;;;29.98;16.35;;;;;;;1.60;96.98;99241.95;3427494;84;98628;-80
2021/01/28 10:39:30;;;;;;;34.03;17.43;;;;;;;1.59;96.91;99245.02;3435228;84;32775;-79
2021/01/28 10:44:32;;;;;;;30.00;15.93;;;;;;;1.64;96.92;99238.00;3425905;84;98376;-79
2021/01/28 10:49:33;;;;;;;31.03;14.83;;;;;;;1.65;96.92;99236.86;3429155;84;33923;-79
2021/01/28 10:54:34;;;;;;;26.43;13.07;;;;;;;1.69;96.94;99231.74;3425294;84;98306;-80
2021/01/28 10:59:35;;;;;;;25.90;13.53;;;;;;;1.71;96.99;99214.55;3429973;84;33596;-79
2021/01/28 11:04:36;;;;;;;27.17;13.43;;;;;;;1.77;97.07;99207.76;3405481;84;98502;-79
2021/01/28 11:09:37;;;;;;;25.23;13.30;;;;;;;1.84;97.09;99207.13;3424180;84;32708;-79
2021/01/28 11:14:39;;;;;;;59.10;25.40;;;;;;;1.91;97.14;99191.83;3424941;84;98448;-80
2021/01/28 11:19:40;;;;;;;49.80;21.40;;;;;;;1.99;97.20;99178.67;3439256;84;32846;-79
2021/01/28 11:24:41;;;;;;;29.03;13.23;;;;;;;2.10;97.15;99182.44;3448187;84;98469;-78
2021/01/28 11:29:44;;;;;;;56.43;19.80;;;;;;;2.17;96.82;99185.87;3458476;84;32757;-79
2021/01/28 11:34:46;;;;;;;35.27;16.53;;;;;;;2.24;96.76;99169.77;3446501;83;98552;-86
2021/01/28 11:39:49;;;;;;;20.93;11.17;;;;;;;2.31;96.51;99163.95;3452166;84;33238;-85
2021/01/28 11:44:50;;;;;;;23.50;12.13;;;;;;;2.40;96.24;99163.16;3445222;84;98123;-86
2021/01/28 11:49:53;;;;;;;40.83;14.80;;;;;;;2.43;96.03;99159.75;3451745;84;32765;-79
2021/01/28 11:54:54;;;;;;;30.27;12.43;;;;;;;2.47;95.74;99151.09;3449843;83;98563;-77
2021/01/28 11:59:55;;;;;;;25.27;12.67;;;;;;;2.54;95.43;99147.20;3455708;84;32721;-80
2021/01/28 12:04:57;;;;;;;35.13;15.57;;;;;;;2.57;95.57;99138.33;3445046;84;98155;-80
2021/01/28 12:09:58;;;;;;;43.57;15.50;;;;;;;2.65;95.41;99137.36;3450884;84;33309;-79
2021/01/28 12:14:59;;;;;;;32.25;13.72;;;;;;;2.73;95.52;99137.70;3453498;83;98497;-82
2021/01/28 12:20:00;;;;;;;20.87;10.33;;;;;;;2.79;95.08;99134.16;3444904;84;33258;-80
2021/01/28 12:25:03;;;;;;;25.27;12.23;;;;;;;2.84;94.78;99133.88;3429914;84;98623;-79
2021/01/28 12:30:07;;;;;;;21.43;9.97;;;;;;;2.84;94.78;99133.88;3426413;84;33692;-80
2021/01/28 12:35:09;;;;;;;23.20;10.90;;;;;;;2.89;94.22;99127.56;3523688;79;97992;-95
2021/01/28 12:40:17;;;;;;;22.13;11.27;;;;;;;2.89;93.92;99121.36;3609364;80;26567;-96
2021/01/28 12:45:19;;;;;;;19.80;10.00;;;;;;;2.89;93.61;99114.57;3600357;79;98572;-95
2021/01/28 12:50:20;;;;;;;17.57;8.30;;;;;;;2.88;93.62;99117.05;3599954;80;33152;-94
2021/01/28 12:55:50;;;;;;;15.60;7.50;;;;;;;2.88;93.24;99108.34;3582035;78;98155;-78
2021/01/28 13:00:54;;;;;;;13.67;5.67;;;;;;;2.82;92.81;99105.70;3462332;82;33247;-77
2021/01/28 13:11:46;;;;;;;19.23;7.70;;;;;;;2.61;92.36;99074.02;3654448;77;35188;-96
2021/01/28 13:16:47;;;;;;;14.70;6.70;;;;;;;2.71;91.37;99087.59;3552451;81;97241;-96
2021/01/28 13:21:48;;;;;;;11.30;4.90;;;;;;;2.75;90.92;99093.89;3554415;82;32638;-96
2021/01/28 13:26:58;;;;;;;11.00;4.20;;;;;;;2.72;90.08;99070.16;3549102;79;97215;-77
2021/01/28 13:32:13;;;;;;;11.27;4.60;;;;;;;2.65;89.62;99068.66;3669186;79;25542;-77
2021/01/28 13:37:35;;;;;;;10.93;5.40;;;;;;;2.62;89.93;99078.89;3739101;77;98082;-77
2021/01/28 13:42:56;;;;;;;9.83;5.33;;;;;;;2.59;89.27;99084.47;3799657;75;26638;-77
2021/01/28 13:48:17;;;;;;;11.70;6.03;;;;;;;2.57;89.91;99076.46;3707719;77;99941;-77
2021/01/28 13:53:35;;;;;;;13.63;5.77;;;;;;;2.52;89.54;99075.38;3615314;77;32711;-77
2021/01/28 14:04:01;;;;;;;12.37;5.03;;;;;;;2.46;89.83;99070.02;3726645;77;97917;-76
2021/01/28 14:09:10;;;;;;;13.33;7.27;;;;;;;2.42;89.78;99072.67;3735887;78;32979;-76
2021/01/28 14:14:16;;;;;;;12.85;6.05;;;;;;;2.39;89.76;99077.99;3753815;77;98339;-76
2021/01/28 14:19:23;;;;;;;14.83;8.30;;;;;;;2.31;89.05;99074.37;3749176;77;32964;-76
2021/01/28 14:24:48;;;;;;;43.63;20.73;;;;;;;2.21;89.27;99078.98;3733351;77;98385;-76
2021/01/28 14:29:57;;;;;;;25.80;16.87;;;;;;;2.18;89.01;99076.97;3733359;77;32786;-76
2021/01/28 14:35:09;;;;;;;97.13;50.27;;;;;;;2.09;89.07;99076.36;3713891;77;98123;-77
2021/01/28 14:40:36;;;;;;;;;;;;;;;;;;;;;
2021/01/28 14:45:30;;;;;;;15.32;8.28;;;;;;;1.96;88.99;99070.05;3614507;77;97973;-77
2021/01/28 14:50:48;;;;;;;11.03;5.07;;;;;;;1.83;88.40;99069.39;3755378;77;33275;-76
2021/01/28 14:56:08;;;;;;;11.83;5.60;;;;;;;1.71;87.79;99056.49;3748334;77;98545;-78
2021/01/28 15:01:23;;;;;;;17.53;7.27;;;;;;;1.60;87.27;99060.28;3583292;81;32688;-78
2021/01/28 15:06:52;;;;;;;14.97;7.07;;;;;;;1.45;87.61;99047.55;3581291;78;97951;-78
2021/01/28 15:11:51;;;;;;;14.53;5.87;;;;;;;1.42;87.33;99055.01;3651872;78;33643;-78
2021/01/28 15:16:58;;;;;;;12.23;4.67;;;;;;;1.35;87.49;99049.98;3734409;77;98735;-77
2021/01/28 15:22:04;;;;;;;16.13;7.17;;;;;;;1.24;86.99;99032.66;3797677;77;26205;-78
2021/01/28 15:27:10;;;;;;;19.30;8.73;;;;;;;1.20;87.14;99034.52;3753548;77;97869;-77
2021/01/28 15:32:27;;;;;;;15.83;6.60;;;;;;;1.18;86.99;99041.63;3775318;77;25833;-77
2021/01/28 15:37:48;;;;;;;18.47;8.97;;;;;;;1.13;86.58;99042.44;3764237;77;97926;-77
2021/01/28 15:42:43;;;;;;;36.57;18.57;;;;;;;1.10;87.03;99043.16;3758529;76;52854;-96
2021/01/28 15:47:44;;;;;;;17.03;8.93;;;;;;;1.11;87.22;99040.66;3543927;80;97350;-95
2021/01/28 15:52:45;;;;;;;17.53;9.90;;;;;;;1.04;86.87;99045.31;3570273;81;32725;-96
2021/01/28 15:57:46;;;;;;;13.47;6.20;;;;;;;1.02;87.13;99038.12;3575557;78;97036;-96
2021/01/28 16:02:47;;;;;;;13.60;6.30;;;;;;;0.96;86.89;99042.22;3595166;81;32615;-96
2021/01/28 16:07:48;;;;;;;17.17;7.47;;;;;;;0.89;86.83;99042.59;3580485;78;97739;-95
2021/01/28 16:12:49;;;;;;;40.33;18.27;;;;;;;0.85;87.09;99043.86;3586039;81;32705;-96
2021/01/28 16:17:50;;;;;;;29.80;14.03;;;;;;;0.76;87.15;99043.21;3619426;78;97768;-95
2021/01/28 16:22:51;;;;;;;21.60;9.83;;;;;;;0.72;87.38;99046.97;3596732;81;32669;-95
2021/01/28 16:27:52;;;;;;;34.40;14.53;;;;;;;0.64;87.41;99044.62;3584531;79;98004;-94
2021/01/28 16:32:54;;;;;;;32.73;15.57;;;;;;;0.63;87.35;99053.89;3603995;80;32730;-94
2021/01/28 16:37:57;;;;;;;26.80;13.40;;;;;;;0.57;87.45;99054.47;3641230;78;98306;-94
2021/01/28 16:42:59;;;;;;;32.77;14.93;;;;;;;0.45;87.19;99053.94;3650733;79;33084;-93
2021/01/28 16:48:01;;;;;;;27.27;12.87;;;;;;;0.34;87.04;99054.19;3655740;79;98048;-93
2021/01/28 16:53:02;;;;;;;24.53;12.07;;;;;;;0.26;87.25;99056.48;3663829;79;32624;-95
2021/01/28 16:58:04;;;;;;;31.03;16.77;;;;;;;0.21;87.15;99058.63;3656362;79;97992;-95
2021/01/28 17:03:05;;;;;;;36.97;15.70;;;;;;;0.07;87.05;99059.56;3660211;79;32702;-94
2021/01/28 17:08:07;;;;;;;33.37;15.23;;;;;;;0.00;87.22;99063.42;3655900;79;98490;-95
2021/01/28 17:13:08;;;;;;;28.07;12.43;;;;;;;-0.05;87.24;99067.70;3664941;79;31869;-93
2021/01/28 17:18:09;;;;;;;37.00;17.90;;;;;;;-0.12;87.43;99071.52;3620814;79;98484;-93
2021/01/28 17:23:12;;;;;;;28.00;15.20;;;;;;;-0.21;87.43;99071.64;3624907;80;32636;-93
2021/01/28 17:28:13;;;;;;;31.85;16.35;;;;;;;-0.33;87.13;99074.13;3664657;79;98243;-93
2021/01/28 17:33:14;;;;;;;30.00;15.40;;;;;;;-0.45;87.33;99078.19;3682955;79;32571;-90
2021/01/28 17:38:16;;;;;;;53.73;22.23;;;;;;;-0.53;87.46;99078.52;3674504;77;98427;-93
2021/01/28 17:43:18;;;;;;;62.50;25.40;;;;;;;-0.57;87.65;99077.61;3682584;78;32761;-91
2021/01/28 17:48:18;;;;;;;58.57;25.17;;;;;;;-0.65;87.45;99075.81;3678861;78;98400;-92
2021/01/28 17:53:19;;;;;;;38.80;14.80;;;;;;;-0.70;87.68;99073.33;3677181;78;32601;-92
2021/01/28 17:58:21;;;;;;;22.90;11.57;;;;;;;-0.76;87.37;99079.27;3668703;78;98412;-92
2021/01/28 18:03:22;;;;;;;21.03;10.80;;;;;;;-0.82;87.44;99087.36;3683936;78;32944;-90
2021/01/28 18:08:24;;;;;;;22.60;10.83;;;;;;;-0.87;87.50;99084.32;3678757;78;98726;-91
2021/01/28 18:13:25;;;;;;;21.37;8.87;;;;;;;-0.91;87.40;99079.36;3649682;78;32645;-92
2021/01/28 18:18:26;;;;;;;20.60;9.77;;;;;;;-0.97;87.38;99082.04;3682621;78;98328;-91
2021/01/28 18:23:27;;;;;;;23.73;10.50;;;;;;;-1.05;87.47;99080.20;3691537;78;33699;-91
2021/01/28 18:28:28;;;;;;;24.13;10.70;;;;;;;-1.11;87.42;99077.48;3678646;79;98416;-91
2021/01/28 18:33:29;;;;;;;22.37;10.30;;;;;;;-1.16;87.48;99089.06;3685895;79;32784;-91
2021/01/28 18:38:30;;;;;;;18.97;10.40;;;;;;;-1.25;87.58;99082.95;3681670;78;98132;-91
2021/01/28 18:43:31;;;;;;;18.67;8.60;;;;;;;-1.33;87.60;99088.66;3688015;79;32642;-96
2021/01/28 18:48:32;;;;;;;19.73;8.13;;;;;;;-1.40;87.86;99091.10;3674188;79;97016;-96
2021/01/28 18:53:33;;;;;;;21.83;9.73;;;;;;;-1.47;87.97;99082.77;3685767;79;31877;-96
2021/01/28 18:58:34;;;;;;;21.54;10.24;;;;;;;-1.52;87.92;99080.27;3678549;77;97640;-95
2021/01/28 19:03:35;;;;;;;20.23;9.13;;;;;;;-1.58;88.08;99074.05;3683653;79;27472;-96
2021/01/28 19:08:37;;;;;;;24.00;9.40;;;;;;;-1.63;88.08;99085.83;3672513;77;97699;-96
2021/01/28 19:13:38;;;;;;;24.60;11.77;;;;;;;-1.66;88.03;99086.47;3684290;79;26074;-96
2021/01/28 19:18:39;;;;;;;23.30;10.13;;;;;;;-1.71;88.25;99085.89;3650136;78;97863;-96
2021/01/28 19:23:41;;;;;;;25.17;10.00;;;;;;;-1.77;88.27;99091.22;3664187;79;26000;-96
2021/01/28 19:28:42;;;;;;;24.90;11.30;;;;;;;-1.83;88.24;99085.25;3675287;79;25804;-96
2021/01/28 19:33:45;;;;;;;23.27;10.30;;;;;;;-1.87;88.33;99088.94;3681063;78;97544;-96
2021/01/28 19:38:46;;;;;;;26.20;14.17;;;;;;;-1.93;88.42;99083.48;3663562;79;27654;-96
2021/01/28 19:43:48;;;;;;;27.20;13.47;;;;;;;-1.97;88.34;99083.93;3675480;77;98097;-96
2021/01/28 19:48:51;;;;;;;21.23;10.10;;;;;;;-2.00;88.28;99093.45;3608142;80;27671;-96
2021/01/28 19:53:51;;;;;;;22.23;11.13;;;;;;;-2.02;88.27;99091.63;3600395;80;98723;-96
2021/01/28 19:58:53;;;;;;;26.67;10.93;;;;;;;-2.05;88.34;99093.64;3619304;80;25870;-96
2021/01/28 20:03:54;;;;;;;22.27;9.33;;;;;;;-2.08;88.07;99101.59;3599594;80;99053;-96
2021/01/28 20:08:55;;;;;;;26.57;10.83;;;;;;;-2.10;88.02;99103.81;3611626;80;26526;-96
2021/01/28 20:13:56;;;;;;;21.47;9.20;;;;;;;-2.10;87.99;99097.88;3607526;80;99468;-96
2021/01/28 20:18:57;;;;;;;22.17;8.37;;;;;;;-2.10;87.87;99106.50;3608710;80;26612;-96
2021/01/28 20:23:58;;;;;;;21.57;10.27;;;;;;;-2.11;87.51;99098.19;3599053;80;98373;-95
2021/01/28 20:28:59;;;;;;;24.93;11.33;;;;;;;-2.11;87.75;99099.54;3611873;80;25957;-95
2021/01/28 20:34:00;;;;;;;20.70;8.90;;;;;;;-2.10;87.73;99094.37;3599073;80;98757;-95
2021/01/28 20:39:01;;;;;;;23.30;12.00;;;;;;;-2.11;87.84;99089.56;3601016;80;25791;-95
2021/01/28 20:44:02;;;;;;;22.50;9.65;;;;;;;-2.09;87.90;99087.32;3601268;80;98699;-95
2021/01/28 20:49:03;;;;;;;21.17;8.23;;;;;;;-2.06;87.94;99083.98;3681666;79;25955;-96
2021/01/28 20:54:05;;;;;;;19.87;8.60;;;;;;;-2.04;88.11;99089.83;3686530;79;98568;-95
2021/01/28 20:59:06;;;;;;;25.07;10.77;;;;;;;-2.00;88.12;99085.92;3684666;79;33523;-95
2021/01/28 21:04:07;;;;;;;19.50;6.67;;;;;;;-1.96;88.18;99082.27;3682433;78;97568;-95
2021/01/28 21:09:08;;;;;;;33.90;15.07;;;;;;;-1.93;87.89;99086.98;3685732;78;32687;-94
2021/01/28 21:14:12;;;;;;;14.30;5.33;;;;;;;-1.90;88.01;99086.89;3670130;79;98333;-95
2021/01/28 21:19:13;;;;;;;10.43;4.13;;;;;;;-1.88;87.78;99081.40;3681502;79;33341;-95
2021/01/28 21:24:14;;;;;;;13.50;4.40;;;;;;;-1.87;87.85;99078.92;3675577;79;98207;-96
2021/01/28 21:29:16;;;;;;;13.73;5.10;;;;;;;-1.85;87.82;99086.70;3682316;79;33694;-95
2021/01/28 21:34:17;;;;;;;12.43;3.87;;;;;;;-1.87;87.69;99081.63;3681413;77;97650;-96
2021/01/28 21:39:18;;;;;;;23.80;8.73;;;;;;;-1.87;87.59;99085.67;3688214;78;32977;-96
2021/01/28 21:44:19;;;;;;;14.87;3.27;;;;;;;-1.89;87.67;99085.77;3682175;79;98162;-96
2021/01/28 21:49:20;;;;;;;16.07;5.03;;;;;;;-1.89;87.61;99089.81;3682877;79;32998;-95
2021/01/28 21:54:22;;;;;;;10.97;3.43;;;;;;;-1.91;87.69;99090.12;3673145;77;98011;-95
2021/01/28 21:59:23;;;;;;;9.43;3.50;;;;;;;-1.93;87.66;99099.11;3679722;79;33070;-95
2021/01/28 22:04:24;;;;;;;12.20;6.03;;;;;;;-1.91;87.70;99107.66;3662132;79;98006;-96
2021/01/28 22:09:26;;;;;;;16.97;5.90;;;;;;;-1.93;87.64;99108.55;3677842;79;32569;-95
2021/01/28 22:14:27;;;;;;;14.07;4.13;;;;;;;-1.93;87.48;99110.44;3673052;78;98122;-95
2021/01/28 22:19:28;;;;;;;15.17;4.63;;;;;;;-1.95;87.38;99095.16;3679790;79;32927;-95
2021/01/28 22:30:04;;;;;;;19.30;7.30;;;;;;;-1.99;87.55;99087.49;3570572;77;33029;-96
2021/01/28 22:35:07;;;;;;;18.97;4.67;;;;;;;-2.05;87.48;99085.56;3536098;82;99044;-95
2021/01/28 22:40:14;;;;;;;14.97;4.77;;;;;;;-2.09;87.43;99088.67;3543316;80;26008;-96
2021/01/28 22:45:16;;;;;;;16.85;4.12;;;;;;;-2.15;87.45;99087.83;3529229;81;98433;-96
2021/01/28 22:50:20;;;;;;;18.37;5.00;;;;;;;-2.16;87.55;99091.64;3541773;81;25460;-96
2021/01/28 22:55:26;;;;;;;16.47;5.53;;;;;;;-2.19;87.59;99080.18;3546306;82;98268;-96
2021/01/28 23:00:32;;;;;;;16.17;4.00;;;;;;;-2.25;87.69;99076.87;3549698;82;25874;-96
2021/01/28 23:05:34;;;;;;;11.53;4.00;;;;;;;-2.28;87.78;99077.53;3537929;82;98361;-96
2021/01/28 23:10:39;;;;;;;10.77;3.70;;;;;;;-2.32;87.80;99087.92;3544146;82;32937;-96
2021/01/28 23:15:43;;;;;;;12.40;4.57;;;;;;;-2.37;87.79;99092.14;3543535;81;98457;-96
2021/01/28 23:20:45;;;;;;;13.33;3.60;;;;;;;-2.41;87.99;99101.43;3543631;82;25858;-96
2021/01/28 23:25:47;;;;;;;38.10;12.30;;;;;;;-2.46;87.99;99111.04;3541888;81;98561;-96
2021/01/28 23:30:48;;;;;;;52.50;17.43;;;;;;;-2.50;88.18;99114.17;3566173;81;25950;-96
2021/01/28 23:35:49;;;;;;;23.97;6.87;;;;;;;-2.54;88.19;99118.61;3566040;81;98261;-96
2021/01/28 23:40:50;;;;;;;23.53;7.97;;;;;;;-2.56;88.31;99120.84;3562481;81;32982;-96
2021/01/28 23:45:56;;;;;;;71.43;17.63;;;;;;;-2.59;88.40;99121.48;3565146;81;98146;-96
2021/01/28 23:50:58;;;;;;;21.45;4.40;;;;;;;-2.55;88.57;99118.92;3558608;81;25885;-96
2021/01/28 23:56:02;;;;;;;13.85;4.03;;;;;;;-2.50;88.65;99118.20;3562391;81;98129;-96
